createdAt,value
2022-09-07T00:01:06.263Z,56.04
2022-09-07T00:03:34.489Z,55.83
2022-09-07T00:06:08.715Z,56.24
2022-09-07T00:08:36.350Z,56.02
2022-09-07T00:11:07.925Z,56.21
2022-09-07T00:13:38.042Z,56.15
2022-09-07T00:16:08.281Z,56.73
2022-09-07T00:18:36.037Z,56.57
2022-09-07T00:21:07.488Z,56.61
2022-09-07T00:23:36.624Z,56.96
2022-09-07T00:26:11.126Z,56.96
2022-09-07T00:28:38.849Z,57.08
2022-09-07T00:31:12.601Z,57.70
2022-09-07T00:33:41.543Z,57.68
2022-09-07T00:36:09.140Z,57.77
2022-09-07T00:38:37.355Z,57.97
2022-09-07T00:41:08.321Z,58.17
2022-09-07T00:43:38.440Z,58.29
2022-09-07T00:46:12.069Z,58.34
2022-09-07T00:49:08.398Z,58.82
2022-09-07T00:51:48.366Z,58.52
2022-09-07T00:54:21.890Z,58.60
2022-09-07T00:56:53.107Z,58.70
2022-09-07T00:59:24.871Z,58.81
2022-09-07T01:01:52.805Z,58.86
2022-09-07T01:04:22.422Z,58.95
2022-09-07T01:06:50.458Z,59.45
2022-09-07T01:09:22.777Z,59.50
2022-09-07T01:11:51.876Z,60.04
2022-09-07T01:14:24.379Z,60.57
2022-09-07T01:17:19.295Z,61.14
2022-09-07T01:20:17.410Z,61.42
2022-09-07T01:22:51.049Z,61.78
2022-09-07T01:25:21.370Z,61.69
2022-09-07T01:28:11.510Z,61.76
2022-09-07T01:30:45.910Z,61.70
2022-09-07T01:33:23.621Z,62.01
2022-09-07T01:36:17.998Z,62.07
2022-09-07T01:38:54.518Z,61.91
2022-09-07T01:41:29.493Z,61.78
2022-09-07T01:44:07.947Z,61.79
2022-09-07T01:46:44.002Z,61.95
2022-09-07T01:49:17.315Z,61.86
2022-09-07T01:51:48.898Z,61.93
2022-09-07T01:54:26.002Z,62.07
2022-09-07T01:56:58.176Z,62.01
2022-09-07T01:59:33.591Z,62.57
2022-09-07T02:02:18.348Z,62.41
2022-09-07T02:05:08.245Z,63.27
2022-09-07T02:07:44.674Z,63.45
2022-09-07T02:10:34.250Z,63.45
2022-09-07T02:13:12.738Z,63.15
2022-09-07T02:16:02.562Z,63.32
2022-09-07T02:18:41.850Z,63.55
2022-09-07T02:21:10.764Z,62.94
2022-09-07T02:23:57.273Z,63.40
2022-09-07T02:26:29.807Z,63.07
2022-09-07T02:28:57.875Z,63.56
2022-09-07T02:31:25.500Z,63.44
2022-09-07T02:33:53.152Z,63.58
2022-09-07T02:36:24.784Z,63.79
2022-09-07T02:38:52.919Z,63.54
2022-09-07T02:41:29.692Z,64.56
2022-09-07T02:43:57.669Z,64.09
2022-09-07T02:46:53.104Z,64.27
2022-09-07T02:49:52.617Z,64.17
2022-09-07T02:53:09.716Z,64.95
2022-09-07T02:56:01.221Z,64.32
2022-09-07T02:58:53.930Z,63.73
2022-09-07T03:01:24.366Z,63.48
2022-09-07T03:04:08.536Z,63.64
2022-09-07T03:06:41.182Z,64.42
2022-09-07T03:09:15.549Z,65.02
2022-09-07T03:11:43.390Z,64.98
2022-09-07T03:14:20.304Z,64.14
2022-09-07T03:16:50.772Z,63.51
2022-09-07T03:19:19.088Z,62.94
2022-09-07T03:21:46.725Z,62.00
2022-09-07T03:24:14.237Z,60.56
2022-09-07T03:26:45.292Z,59.99
2022-09-07T03:29:13.013Z,59.25
2022-09-07T03:31:40.791Z,58.19
2022-09-07T03:34:08.724Z,57.61
2022-09-07T03:36:36.347Z,57.36
2022-09-07T03:39:04.674Z,56.38
2022-09-07T03:41:32.153Z,55.85
2022-09-07T03:44:05.339Z,55.06
2022-09-07T03:46:33.560Z,54.63
2022-09-07T03:49:01.093Z,54.16
2022-09-07T03:51:28.740Z,53.55
2022-09-07T03:53:56.391Z,53.40
2022-09-07T03:56:26.871Z,52.95
2022-09-07T03:58:58.371Z,51.94
2022-09-07T04:01:27.374Z,51.53
2022-09-07T04:04:02.187Z,50.39
2022-09-07T04:06:32.746Z,50.58
2022-09-07T04:09:06.262Z,49.46
2022-09-07T04:11:37.061Z,49.55
2022-09-07T04:14:04.741Z,48.77
2022-09-07T04:16:32.320Z,48.22
2022-09-07T04:19:00.278Z,47.74
2022-09-07T04:21:29.990Z,46.69
2022-09-07T04:23:58.296Z,46.69
2022-09-07T04:26:34.102Z,46.53
2022-09-07T04:29:03.106Z,46.30
2022-09-07T04:31:33.004Z,45.60
2022-09-07T04:34:00.671Z,45.25
2022-09-07T04:36:28.542Z,44.77
2022-09-07T04:39:01.538Z,44.30
2022-09-07T04:41:31.506Z,44.02
2022-09-07T04:44:02.877Z,43.67
2022-09-07T04:46:36.213Z,42.96
2022-09-07T04:49:09.669Z,42.60
2022-09-07T04:51:38.869Z,42.26
2022-09-07T04:54:07.303Z,41.58
2022-09-07T04:56:34.927Z,40.43
2022-09-07T04:59:03.510Z,39.83
2022-09-07T05:01:31.197Z,39.66
2022-09-07T05:04:01.672Z,39.02
2022-09-07T05:06:29.743Z,38.35
2022-09-07T05:08:59.209Z,38.63
2022-09-07T05:11:30.246Z,38.61
2022-09-07T05:14:02.619Z,38.35
2022-09-07T05:16:31.285Z,38.17
2022-09-07T05:19:01.779Z,37.71
2022-09-07T05:21:32.003Z,36.94
2022-09-07T05:24:01.091Z,36.46
2022-09-07T05:26:30.592Z,35.75
2022-09-07T05:31:50.209Z,35.37
2022-09-07T05:36:55.815Z,34.53
2022-09-07T05:39:23.739Z,34.29
2022-09-07T05:41:51.279Z,34.48
2022-09-07T05:47:07.317Z,33.75
2022-09-07T05:49:34.942Z,34.00
2022-09-07T05:52:04.969Z,34.34
2022-09-07T05:54:35.913Z,34.44
2022-09-07T05:57:06.063Z,34.10
2022-09-07T05:59:34.825Z,34.00
2022-09-07T06:02:03.317Z,33.36
2022-09-07T06:04:33.382Z,32.84
2022-09-07T06:07:22.116Z,32.96
2022-09-07T06:12:51.887Z,32.23
2022-09-07T06:15:21.547Z,32.33
2022-09-07T06:17:51.110Z,31.39
2022-09-07T06:20:23.559Z,31.15
2022-09-07T06:22:57.632Z,30.98
2022-09-07T06:25:26.511Z,30.94
2022-09-07T06:27:55.183Z,30.75
2022-09-07T06:30:23.744Z,30.23
2022-09-07T06:32:52.588Z,30.64
2022-09-07T06:35:23.604Z,30.29
2022-09-07T06:37:53.532Z,30.03
2022-09-07T06:40:23.327Z,29.29
2022-09-07T06:42:51.895Z,29.29
2022-09-07T06:45:20.887Z,29.41
2022-09-07T06:47:50.584Z,28.81
2022-09-07T06:50:19.244Z,28.58
2022-09-07T06:55:45.868Z,28.16
2022-09-07T06:58:14.694Z,28.56
2022-09-07T07:00:46.603Z,27.80
2022-09-07T07:03:17.085Z,27.86
2022-09-07T07:05:57.045Z,27.45
2022-09-07T07:08:27.059Z,27.83
2022-09-07T07:10:55.876Z,27.26
2022-09-07T07:13:24.958Z,26.49
2022-09-07T07:15:54.326Z,26.72
2022-09-07T07:18:23.002Z,26.56
2022-09-07T07:20:54.144Z,26.45
2022-09-07T07:23:29.204Z,26.64
2022-09-07T07:26:03.244Z,26.15
2022-09-07T07:31:27.915Z,24.89
2022-09-07T07:33:57.110Z,25.15
2022-09-07T07:36:28.376Z,24.77
2022-09-07T07:44:21.197Z,23.94
2022-09-07T07:46:50.768Z,24.26
2022-09-07T07:49:20.507Z,23.65
2022-09-07T07:54:43.487Z,23.96
2022-09-07T07:57:12.184Z,24.24
2022-09-07T07:59:40.660Z,23.89
2022-09-07T08:02:14.792Z,23.62
2022-09-07T08:04:47.192Z,23.84
2022-09-07T08:07:16.234Z,23.83
2022-09-07T08:09:49.760Z,23.66
2022-09-07T08:12:21.140Z,23.46
2022-09-07T08:14:49.000Z,23.61
2022-09-07T08:17:18.023Z,23.49
2022-09-07T08:19:47.858Z,22.25
2022-09-07T08:22:17.550Z,22.39
2022-09-07T08:24:45.846Z,21.66
2022-09-07T08:27:16.464Z,21.02
2022-09-07T08:29:47.421Z,21.44
2022-09-07T08:32:15.160Z,21.59
2022-09-07T08:34:42.751Z,20.88
2022-09-07T08:37:11.019Z,21.42
2022-09-07T08:39:38.530Z,20.75
2022-09-07T08:42:37.930Z,21.10
2022-09-07T08:45:11.697Z,20.89
2022-09-07T08:47:48.597Z,20.68
2022-09-07T08:50:22.292Z,20.50
2022-09-07T08:52:50.646Z,20.60
2022-09-07T08:55:39.647Z,20.67
2022-09-07T08:58:27.054Z,20.69
2022-09-07T09:06:43.603Z,20.53
2022-09-07T09:09:37.940Z,20.87
2022-09-07T09:12:33.297Z,21.41
2022-09-07T09:15:48.066Z,21.95
2022-09-07T09:18:30.610Z,22.08
2022-09-07T09:21:00.324Z,22.77
2022-09-07T09:23:34.770Z,22.70
2022-09-07T09:26:26.959Z,22.13
2022-09-07T09:28:55.369Z,21.98
2022-09-07T09:31:28.496Z,22.24
2022-09-07T09:34:23.975Z,22.16
2022-09-07T09:36:56.166Z,22.84
2022-09-07T09:39:35.152Z,22.69
2022-09-07T09:42:13.404Z,22.78
2022-09-07T09:44:42.473Z,23.08
2022-09-07T09:47:49.024Z,23.81
2022-09-07T09:53:37.497Z,23.64
2022-09-07T09:56:05.562Z,23.41
2022-09-07T10:01:36.294Z,24.29
2022-09-07T10:04:25.549Z,24.67
2022-09-07T10:07:15.285Z,24.73
2022-09-07T10:09:54.944Z,24.92
2022-09-07T10:12:36.351Z,24.57
2022-09-07T10:15:24.818Z,24.30
2022-09-07T10:17:52.747Z,24.24
2022-09-07T10:20:35.380Z,24.18
2022-09-07T10:23:04.973Z,24.21
2022-09-07T10:25:46.301Z,24.25
2022-09-07T10:28:21.301Z,24.22
2022-09-07T10:31:21.430Z,24.13
2022-09-07T10:37:05.735Z,23.64
2022-09-07T10:40:03.394Z,23.22
2022-09-07T10:42:39.494Z,23.38
2022-09-07T10:45:19.420Z,23.17
2022-09-07T10:47:53.475Z,23.18
2022-09-07T10:50:33.688Z,23.21
2022-09-07T10:53:40.044Z,23.12
2022-09-07T10:56:15.069Z,23.06
2022-09-07T10:59:20.839Z,23.28
2022-09-07T11:01:56.869Z,23.44
2022-09-07T11:04:44.622Z,23.65
2022-09-07T11:07:25.592Z,23.79
2022-09-07T11:10:34.047Z,24.02
2022-09-07T11:13:05.714Z,24.31
2022-09-07T11:15:49.010Z,24.49
2022-09-07T11:18:39.348Z,24.05
2022-09-07T11:21:56.118Z,24.19
2022-09-07T11:24:27.705Z,24.41
2022-09-07T11:27:00.775Z,24.22
2022-09-07T11:29:43.590Z,24.05
2022-09-07T11:32:33.101Z,23.95
2022-09-07T11:35:12.654Z,24.10
2022-09-07T11:37:52.346Z,24.05
2022-09-07T11:40:31.782Z,24.27
2022-09-07T11:43:43.187Z,24.27
2022-09-07T11:46:26.949Z,24.37
2022-09-07T11:48:58.744Z,24.48
2022-09-07T11:51:45.291Z,24.79
2022-09-07T11:54:43.341Z,24.59
2022-09-07T11:57:37.065Z,24.46
2022-09-07T12:00:13.911Z,24.62
2022-09-07T12:02:59.483Z,24.67
2022-09-07T12:06:06.685Z,25.04
2022-09-07T12:08:43.770Z,25.15
2022-09-07T12:11:14.213Z,25.33
2022-09-07T12:14:12.177Z,25.47
2022-09-07T12:17:07.062Z,25.49
2022-09-07T12:19:34.928Z,25.63
2022-09-07T12:22:02.541Z,25.72
2022-09-07T12:24:49.286Z,25.67
2022-09-07T12:27:22.977Z,25.96
2022-09-07T12:30:13.508Z,26.33
2022-09-07T12:32:55.300Z,26.12
2022-09-07T12:35:26.914Z,25.98
2022-09-07T12:38:16.702Z,26.38
2022-09-07T12:41:09.786Z,26.18
2022-09-07T12:43:43.396Z,26.70
2022-09-07T12:46:41.339Z,26.65
2022-09-07T12:49:36.793Z,26.99
2022-09-07T12:52:15.675Z,26.90
2022-09-07T12:55:26.168Z,27.05
2022-09-07T12:58:12.810Z,27.13
2022-09-07T13:01:14.646Z,27.21
2022-09-07T13:04:41.391Z,27.03
2022-09-07T13:07:24.461Z,27.34
2022-09-07T13:10:00.109Z,27.36
2022-09-07T13:12:57.097Z,27.56
2022-09-07T13:15:43.846Z,27.47
2022-09-07T13:18:27.938Z,27.69
2022-09-07T13:21:08.035Z,27.84
2022-09-07T13:23:40.210Z,27.37
2022-09-07T13:26:13.477Z,27.73
2022-09-07T13:28:40.965Z,28.02
2022-09-07T13:31:30.312Z,27.87
2022-09-07T13:33:57.970Z,28.13
2022-09-07T13:36:37.094Z,28.24
2022-09-07T13:39:09.830Z,28.19
2022-09-07T13:41:43.701Z,28.52
2022-09-07T13:44:31.029Z,28.46
2022-09-07T13:47:21.345Z,28.30
2022-09-07T13:50:18.525Z,28.51
2022-09-07T13:52:58.191Z,28.55
2022-09-07T13:55:39.419Z,28.73
2022-09-07T13:58:18.177Z,28.76
2022-09-07T14:00:58.727Z,28.92
2022-09-07T14:03:30.502Z,28.85
2022-09-07T14:06:27.039Z,29.18
2022-09-07T14:09:04.530Z,29.18
2022-09-07T14:11:52.768Z,29.30
2022-09-07T14:14:33.342Z,29.43
2022-09-07T14:17:00.882Z,29.44
2022-09-07T14:19:45.504Z,29.57
2022-09-07T14:22:21.364Z,29.54
2022-09-07T14:24:54.789Z,29.77
2022-09-07T14:27:26.864Z,30.00
2022-09-07T14:29:54.407Z,30.24
2022-09-07T14:32:25.288Z,30.18
2022-09-07T14:34:53.073Z,30.33
2022-09-07T14:37:23.107Z,30.39
2022-09-07T14:39:53.007Z,30.40
2022-09-07T14:42:24.599Z,30.33
2022-09-07T14:45:19.375Z,30.82
2022-09-07T14:47:49.335Z,30.68
2022-09-07T14:50:23.994Z,30.91
2022-09-07T14:55:44.959Z,31.19
2022-09-07T14:58:15.094Z,31.40
2022-09-07T15:00:45.974Z,31.58
2022-09-07T15:03:33.181Z,31.66
2022-09-07T15:06:02.712Z,31.62
2022-09-07T15:08:42.698Z,31.68
2022-09-07T15:11:38.982Z,31.89
2022-09-07T15:14:18.496Z,31.91
2022-09-07T15:19:47.349Z,32.08
2022-09-07T15:22:23.831Z,32.42
2022-09-07T15:24:51.362Z,32.33
2022-09-07T15:27:29.204Z,32.67
2022-09-07T15:29:57.762Z,32.68
2022-09-07T15:32:25.289Z,33.06
2022-09-07T15:34:52.763Z,33.06
2022-09-07T15:40:29.357Z,33.66
2022-09-07T15:43:00.335Z,33.67
2022-09-07T15:45:28.272Z,33.96
2022-09-07T15:47:56.592Z,34.18
2022-09-07T15:50:24.048Z,34.09
2022-09-07T15:52:52.114Z,34.55
2022-09-07T15:55:19.537Z,34.83
2022-09-07T15:57:49.309Z,34.45
2022-09-07T16:00:18.197Z,34.88
2022-09-07T16:03:05.437Z,35.13
2022-09-07T16:05:33.933Z,35.09
2022-09-07T16:10:55.807Z,35.48
2022-09-07T16:13:33.093Z,35.67
2022-09-07T16:16:00.653Z,36.02
2022-09-07T16:18:31.291Z,35.71
2022-09-07T16:21:13.833Z,36.28
2022-09-07T16:23:49.044Z,36.21
2022-09-07T16:26:18.452Z,36.66
2022-09-07T16:28:48.891Z,36.55
2022-09-07T16:31:22.267Z,36.95
2022-09-07T16:33:50.169Z,36.84
2022-09-07T16:36:19.004Z,37.21
2022-09-07T16:38:48.801Z,37.06
2022-09-07T16:41:26.704Z,37.63
2022-09-07T16:43:54.730Z,37.58
2022-09-07T16:46:25.096Z,37.50
2022-09-07T16:48:53.209Z,37.68
2022-09-07T16:51:22.886Z,37.80
2022-09-07T16:53:53.190Z,37.77
2022-09-07T16:56:23.941Z,37.58
2022-09-07T16:58:57.023Z,38.33
2022-09-07T17:01:28.632Z,38.03
2022-09-07T17:03:56.705Z,38.30
2022-09-07T17:06:26.928Z,38.47
2022-09-07T17:08:55.009Z,38.76
2022-09-07T17:11:28.039Z,38.93
2022-09-07T17:13:57.699Z,39.03
2022-09-07T17:16:28.245Z,38.56
2022-09-07T17:21:47.492Z,38.83
2022-09-07T17:24:14.981Z,38.96
2022-09-07T17:26:42.956Z,39.26
2022-09-07T17:29:13.193Z,39.61
2022-09-07T17:34:30.220Z,39.89
2022-09-07T17:36:57.936Z,39.93
2022-09-07T17:39:25.391Z,40.17
2022-09-07T17:41:53.101Z,40.21
2022-09-07T17:44:22.775Z,40.57
2022-09-07T17:46:50.209Z,40.92
2022-09-07T17:49:17.996Z,40.96
2022-09-07T17:51:46.295Z,40.68
2022-09-07T17:54:16.057Z,40.98
2022-09-07T17:56:44.334Z,41.10
2022-09-07T18:02:02.265Z,41.15
2022-09-07T18:04:30.466Z,41.17
2022-09-07T18:06:58.022Z,41.21
2022-09-07T18:09:25.625Z,40.95
2022-09-07T18:11:55.543Z,41.36
2022-09-07T18:14:23.205Z,41.52
2022-09-07T18:16:51.288Z,42.10
2022-09-07T18:19:19.588Z,41.87
2022-09-07T18:21:48.340Z,42.07
2022-09-07T18:24:22.496Z,42.39
2022-09-07T18:26:52.655Z,41.89
2022-09-07T18:29:33.500Z,42.70
2022-09-07T18:32:07.466Z,42.41
2022-09-07T18:34:37.305Z,42.70
2022-09-07T18:37:05.491Z,43.39
2022-09-07T18:39:33.735Z,42.61
2022-09-07T18:42:01.575Z,42.48
2022-09-07T18:47:27.899Z,42.93
2022-09-07T18:49:56.149Z,43.33
2022-09-07T18:55:12.060Z,43.50
2022-09-07T18:57:39.626Z,43.55
2022-09-07T19:00:09.756Z,44.65
2022-09-07T19:02:37.795Z,44.27
2022-09-07T19:07:53.439Z,44.47
2022-09-07T19:10:20.985Z,44.07
2022-09-07T19:12:48.482Z,44.43
2022-09-07T19:15:16.025Z,44.32
2022-09-07T19:17:43.640Z,44.26
2022-09-07T19:20:11.282Z,44.41
2022-09-07T19:22:39.421Z,44.49
2022-09-07T19:25:07.209Z,44.47
2022-09-07T19:27:34.803Z,44.33
2022-09-07T19:30:02.424Z,44.54
2022-09-07T19:32:31.052Z,45.23
2022-09-07T19:34:58.563Z,45.34
2022-09-07T19:37:29.179Z,44.90
2022-09-07T19:39:57.024Z,44.92
2022-09-07T19:42:25.673Z,45.67
2022-09-07T19:44:54.825Z,45.20
2022-09-07T19:47:23.539Z,45.69
2022-09-07T19:49:52.466Z,45.67
2022-09-07T19:52:20.058Z,46.05
2022-09-07T19:54:47.515Z,45.98
2022-09-07T19:57:15.014Z,46.59
2022-09-07T19:59:42.495Z,46.14
2022-09-07T20:02:11.035Z,46.87
2022-09-07T20:04:38.540Z,46.39
2022-09-07T20:07:06.876Z,46.50
2022-09-07T20:09:34.433Z,46.81
2022-09-07T20:12:03.954Z,46.84
2022-09-07T20:14:31.447Z,46.98
2022-09-07T20:16:58.917Z,47.47
2022-09-07T20:19:26.420Z,47.71
2022-09-07T20:21:56.055Z,47.51
2022-09-07T20:24:23.743Z,47.76
2022-09-07T20:26:51.993Z,47.80
2022-09-07T20:29:28.605Z,47.62
2022-09-07T20:31:59.053Z,48.04
2022-09-07T20:34:28.218Z,47.76
2022-09-07T20:36:57.158Z,48.28
2022-09-07T20:39:25.247Z,48.38
2022-09-07T20:41:52.853Z,48.22
2022-09-07T20:44:20.320Z,48.46
2022-09-07T20:46:50.534Z,48.46
2022-09-07T20:49:18.015Z,48.59
2022-09-07T20:51:45.521Z,48.43
2022-09-07T20:54:13.067Z,48.70
2022-09-07T20:56:40.584Z,48.41
2022-09-07T20:59:08.116Z,48.62
2022-09-07T21:01:35.803Z,48.56
2022-09-07T21:04:04.318Z,48.78
2022-09-07T21:06:32.228Z,49.35
2022-09-07T21:09:00.473Z,49.11
2022-09-07T21:11:34.324Z,49.29
2022-09-07T21:14:06.437Z,49.56
2022-09-07T21:16:35.472Z,49.77
2022-09-07T21:19:05.842Z,49.82
2022-09-07T21:21:39.489Z,50.39
2022-09-07T21:24:14.869Z,49.99
2022-09-07T21:26:42.285Z,49.97
2022-09-07T21:29:15.944Z,49.96
2022-09-07T21:31:43.480Z,49.88
2022-09-07T21:34:11.382Z,50.01
2022-09-07T21:36:38.795Z,50.68
2022-09-07T21:39:09.494Z,50.65
2022-09-07T21:41:38.894Z,50.90
2022-09-07T21:44:06.450Z,50.49
2022-09-07T21:46:34.430Z,50.75
2022-09-07T21:49:02.353Z,51.24
2022-09-07T21:51:31.958Z,50.91
2022-09-07T21:54:00.708Z,51.20
2022-09-07T21:56:32.335Z,51.30
2022-09-07T21:59:01.901Z,51.33
2022-09-07T22:01:30.852Z,51.39
2022-09-07T22:04:07.174Z,51.91
2022-09-07T22:06:35.125Z,52.25
2022-09-07T22:09:05.160Z,52.40
2022-09-07T22:11:32.813Z,52.66
2022-09-07T22:14:03.278Z,52.27
2022-09-07T22:16:34.421Z,52.51
2022-09-07T22:19:02.003Z,53.10
2022-09-07T22:21:30.668Z,52.86
2022-09-07T22:24:00.710Z,53.52
2022-09-07T22:26:31.017Z,52.76
2022-09-07T22:28:59.470Z,53.13
2022-09-07T22:31:32.346Z,52.87
2022-09-07T22:34:02.179Z,52.67
2022-09-07T22:36:29.573Z,52.42
2022-09-07T22:38:59.134Z,52.89
2022-09-07T22:41:32.178Z,52.67
2022-09-07T22:44:00.124Z,53.10
2022-09-07T22:46:30.363Z,53.88
2022-09-07T22:48:59.085Z,53.85
2022-09-07T22:51:27.688Z,54.29
2022-09-07T22:53:55.590Z,54.25
2022-09-07T22:56:25.942Z,54.19
2022-09-07T22:58:59.027Z,54.51
2022-09-07T23:01:27.862Z,54.63
2022-09-07T23:03:56.658Z,54.89
2022-09-07T23:06:29.748Z,54.96
2022-09-07T23:08:59.219Z,55.35
2022-09-07T23:11:27.399Z,55.25
2022-09-07T23:13:57.296Z,55.54
2022-09-07T23:16:26.243Z,55.45
2022-09-07T23:18:54.754Z,55.44
2022-09-07T23:21:22.447Z,55.63
2022-09-07T23:23:54.838Z,56.07
2022-09-07T23:26:23.665Z,55.92
2022-09-07T23:28:53.025Z,56.06
2022-09-07T23:31:21.463Z,56.03
2022-09-07T23:33:49.710Z,55.91
2022-09-07T23:36:20.893Z,55.96
2022-09-07T23:38:55.020Z,56.31
2022-09-07T23:41:23.607Z,56.47
2022-09-07T23:43:52.306Z,56.13
2022-09-07T23:46:20.167Z,56.14
2022-09-07T23:48:48.464Z,57.25
2022-09-07T23:51:21.255Z,56.98
2022-09-07T23:53:53.036Z,57.36
2022-09-07T23:56:22.688Z,57.28
2022-09-07T23:58:50.220Z,58.20
